createdAt,value
2022-12-18T11:12:53.513Z,55.20
2022-12-18T11:15:23.040Z,54.40
2022-12-18T11:17:54.209Z,54.70
2022-12-18T11:20:27.238Z,55.10
2022-12-18T11:22:58.736Z,55.10
2022-12-18T11:25:35.756Z,55.10
2022-12-18T11:28:06.859Z,55.20
2022-12-18T11:30:35.586Z,55.20
2022-12-18T11:33:06.302Z,55.30
2022-12-18T11:35:52.727Z,55.30
2022-12-18T11:38:37.356Z,55.30
2022-12-18T11:41:07.725Z,55.40
2022-12-18T11:43:41.082Z,55.40
2022-12-18T11:46:19.123Z,55.40
2022-12-18T11:48:50.125Z,55.40
2022-12-18T11:51:27.076Z,55.50
2022-12-18T11:53:55.320Z,55.50
2022-12-18T11:56:31.125Z,55.50
2022-12-18T11:59:05.107Z,55.50
2022-12-18T12:01:44.435Z,55.60
2022-12-18T12:04:38.814Z,55.60
2022-12-18T12:07:15.077Z,55.70
2022-12-18T12:09:47.639Z,55.70
2022-12-18T12:12:25.529Z,55.70
2022-12-18T12:14:59.152Z,55.70
2022-12-18T12:17:32.237Z,55.70
2022-12-18T12:20:10.073Z,55.80
2022-12-18T12:22:48.283Z,55.80
2022-12-18T12:25:24.137Z,55.80
2022-12-18T12:27:56.166Z,55.90
2022-12-18T12:30:29.802Z,55.90
2022-12-18T12:33:08.041Z,56.00
2022-12-18T12:35:44.413Z,55.90
2022-12-18T12:38:33.798Z,55.30
2022-12-18T12:41:03.775Z,54.80
2022-12-18T12:43:35.785Z,54.20
2022-12-18T12:46:07.727Z,53.70
2022-12-18T12:48:40.288Z,53.10
2022-12-18T12:51:13.005Z,52.30
2022-12-18T12:53:42.609Z,51.80
2022-12-18T12:56:17.993Z,51.30
2022-12-18T12:58:52.264Z,51.20
2022-12-18T13:01:28.029Z,51.00
2022-12-18T13:04:00.674Z,51.00
2022-12-18T13:06:36.919Z,50.90
2022-12-18T13:09:07.327Z,50.80
2022-12-18T13:11:59.952Z,50.70
2022-12-18T13:14:33.243Z,50.70
2022-12-18T13:17:32.043Z,50.50
2022-12-18T13:20:14.502Z,50.40
2022-12-18T13:22:46.063Z,50.30
2022-12-18T13:25:34.712Z,50.70
2022-12-18T13:28:13.917Z,51.60
2022-12-18T13:30:50.242Z,52.10
2022-12-18T13:36:40.215Z,53.40
2022-12-18T13:39:30.005Z,54.00
2022-12-18T13:42:51.487Z,54.40
2022-12-18T13:45:48.031Z,54.70
2022-12-18T13:48:24.304Z,54.50
2022-12-18T13:50:57.632Z,54.30
2022-12-18T13:53:28.564Z,53.70
2022-12-18T13:55:56.857Z,53.20
2022-12-18T13:58:24.958Z,52.40
2022-12-18T14:00:53.028Z,51.80
2022-12-18T14:03:23.308Z,51.50
2022-12-18T14:06:02.461Z,51.10
2022-12-18T14:08:40.174Z,50.90
2022-12-18T14:11:26.803Z,51.40
2022-12-18T14:14:01.380Z,51.80
2022-12-18T14:16:29.533Z,52.50
2022-12-18T14:19:02.680Z,52.90
2022-12-18T14:21:48.041Z,53.30
2022-12-18T14:24:19.025Z,53.60
2022-12-18T14:26:53.672Z,53.90
2022-12-18T14:29:26.526Z,54.10
2022-12-18T14:32:17.343Z,53.90
2022-12-18T14:34:46.416Z,53.60
2022-12-18T14:37:17.197Z,53.00
2022-12-18T14:39:59.115Z,52.60
2022-12-18T14:42:29.264Z,51.80
2022-12-18T14:45:43.077Z,51.50
2022-12-18T14:48:19.012Z,51.20
2022-12-18T14:50:57.942Z,51.70
2022-12-18T14:53:39.204Z,52.20
2022-12-18T14:56:17.867Z,52.60
2022-12-18T14:58:53.976Z,53.00
2022-12-18T15:01:23.975Z,53.30
2022-12-18T15:03:52.638Z,53.60
2022-12-18T15:06:32.567Z,53.20
2022-12-18T15:09:02.873Z,53.10
2022-12-18T15:11:36.853Z,52.50
2022-12-18T15:14:23.885Z,52.30
2022-12-18T15:16:55.601Z,51.80
2022-12-18T15:19:24.094Z,51.30
2022-12-18T15:21:52.293Z,51.70
2022-12-18T15:24:27.374Z,52.20
2022-12-18T15:26:55.448Z,52.80
2022-12-18T15:29:23.767Z,53.50
2022-12-18T15:32:02.021Z,53.90
2022-12-18T15:34:30.935Z,54.00
2022-12-18T15:36:59.059Z,54.30
2022-12-18T15:39:28.583Z,53.40
2022-12-18T15:42:14.294Z,53.30
2022-12-18T15:44:45.515Z,53.00
2022-12-18T15:47:14.386Z,52.50
2022-12-18T15:49:42.499Z,52.10
2022-12-18T15:52:10.753Z,51.80
2022-12-18T15:54:57.600Z,51.70
2022-12-18T15:57:25.695Z,51.90
2022-12-18T15:59:59.062Z,52.40
2022-12-18T16:02:33.535Z,52.80
2022-12-18T16:05:10.591Z,53.10
2022-12-18T16:07:38.726Z,53.40
2022-12-18T16:10:09.297Z,53.70
2022-12-18T16:12:37.372Z,53.80
2022-12-18T16:15:06.322Z,53.30
2022-12-18T16:17:34.878Z,52.70
2022-12-18T16:20:03.029Z,52.70
2022-12-18T16:22:46.079Z,52.20
2022-12-18T16:25:26.238Z,51.70
2022-12-18T16:28:00.104Z,51.30
2022-12-18T16:30:36.278Z,51.60
2022-12-18T16:33:07.625Z,51.80
2022-12-18T16:35:38.103Z,52.20
2022-12-18T16:38:06.309Z,52.40
2022-12-18T16:40:55.900Z,52.80
2022-12-18T16:43:23.966Z,53.10
2022-12-18T16:46:08.274Z,53.30
2022-12-18T16:48:42.356Z,52.70
2022-12-18T16:51:10.409Z,52.60
2022-12-18T16:53:38.560Z,52.30
2022-12-18T16:56:08.618Z,51.60
2022-12-18T16:58:36.698Z,50.90
2022-12-18T17:01:09.475Z,50.90
2022-12-18T17:03:37.800Z,51.30
2022-12-18T17:06:06.427Z,51.60
2022-12-18T17:08:44.095Z,52.00
2022-12-18T17:11:13.548Z,52.30
2022-12-18T17:13:42.012Z,52.60
2022-12-18T17:16:10.687Z,53.00
2022-12-18T17:18:38.974Z,53.20
2022-12-18T17:21:09.470Z,53.40
2022-12-18T17:23:38.246Z,53.50
2022-12-18T17:26:08.280Z,53.60
2022-12-18T17:28:38.076Z,53.80
2022-12-18T17:31:12.853Z,54.00
2022-12-18T17:33:41.405Z,54.10
2022-12-18T17:36:10.205Z,54.10
2022-12-18T17:38:38.280Z,54.20
2022-12-18T17:41:07.491Z,54.30
2022-12-18T17:43:36.983Z,54.30
2022-12-18T17:46:05.141Z,54.40
2022-12-18T17:48:43.614Z,54.40
2022-12-18T17:51:12.017Z,54.50
2022-12-18T17:53:40.606Z,54.50
2022-12-18T17:56:09.151Z,54.60
2022-12-18T17:58:39.224Z,54.60
2022-12-18T18:01:07.756Z,54.70
2022-12-18T18:03:38.085Z,54.70
2022-12-18T18:06:06.906Z,54.70
2022-12-18T18:08:35.054Z,54.70
2022-12-18T18:11:19.544Z,54.80
2022-12-18T18:14:04.685Z,54.90
2022-12-18T18:16:34.913Z,54.90
2022-12-18T18:19:03.950Z,54.90
2022-12-18T18:21:32.331Z,55.00
2022-12-18T18:24:02.376Z,55.00
2022-12-18T18:26:31.483Z,55.00
2022-12-18T18:29:02.471Z,55.00
2022-12-18T18:31:33.090Z,55.10
2022-12-18T18:34:03.649Z,55.10
2022-12-18T18:36:31.809Z,55.30
2022-12-18T18:39:00.567Z,55.30
2022-12-18T18:41:29.983Z,55.30
2022-12-18T18:44:02.903Z,55.30
2022-12-18T18:46:31.464Z,55.30
2022-12-18T18:48:59.503Z,55.30
2022-12-18T18:51:33.036Z,55.40
2022-12-18T18:54:02.827Z,55.40
2022-12-18T18:59:23.617Z,55.40
2022-12-18T19:02:00.731Z,55.50
2022-12-18T19:04:33.479Z,55.40
2022-12-18T19:07:01.542Z,55.40
2022-12-18T19:09:29.605Z,55.50
2022-12-18T19:12:14.857Z,55.60
2022-12-18T19:14:44.470Z,55.60
2022-12-18T19:17:12.644Z,55.60
2022-12-18T19:19:40.940Z,55.60
2022-12-18T19:22:09.575Z,55.60
2022-12-18T19:24:37.648Z,55.60
2022-12-18T19:27:07.814Z,55.70
2022-12-18T19:29:35.884Z,55.70
2022-12-18T19:32:07.568Z,55.60
2022-12-18T19:34:35.703Z,55.70
2022-12-18T19:37:03.897Z,55.70
2022-12-18T19:39:32.078Z,55.70
2022-12-18T19:42:00.692Z,55.70
2022-12-18T19:44:28.764Z,55.70
2022-12-18T19:46:56.829Z,55.70
2022-12-18T19:49:26.284Z,55.80
2022-12-18T19:51:54.555Z,55.80
2022-12-18T19:54:22.628Z,55.80
2022-12-18T19:56:52.798Z,55.80
2022-12-18T19:59:28.855Z,55.80
2022-12-18T20:01:57.126Z,55.80
2022-12-18T20:04:26.779Z,55.80
2022-12-18T20:06:55.030Z,55.80
2022-12-18T20:09:23.290Z,55.80
2022-12-18T20:11:51.896Z,55.80
2022-12-18T20:14:23.339Z,55.70
2022-12-18T20:16:57.950Z,55.80
2022-12-18T20:19:29.907Z,55.80
2022-12-18T20:21:58.256Z,55.80
2022-12-18T20:24:27.043Z,55.80
2022-12-18T20:26:55.459Z,55.80
2022-12-18T20:29:23.567Z,55.80
2022-12-18T20:31:51.701Z,55.80
2022-12-18T20:34:25.748Z,55.90
2022-12-18T20:36:55.529Z,55.90
2022-12-18T20:39:29.734Z,55.80
2022-12-18T20:41:58.890Z,55.80
2022-12-18T20:44:26.920Z,55.90
2022-12-18T20:46:56.436Z,55.90
2022-12-18T20:49:24.861Z,55.80
2022-12-18T20:51:53.365Z,55.80
2022-12-18T20:54:22.991Z,55.80
2022-12-18T20:56:51.162Z,55.90
2022-12-18T20:59:19.781Z,55.80
2022-12-18T21:01:48.919Z,55.90
2022-12-18T21:04:18.530Z,55.90
2022-12-18T21:06:51.407Z,56.00
2022-12-18T21:09:22.120Z,56.00
2022-12-18T21:12:07.618Z,56.00
2022-12-18T21:14:36.751Z,56.10
2022-12-18T21:17:04.820Z,56.10
2022-12-18T21:19:33.191Z,56.10
2022-12-18T21:22:01.417Z,56.30
2022-12-18T21:24:32.740Z,56.30
2022-12-18T21:27:01.861Z,56.40
2022-12-18T21:29:30.093Z,56.40
2022-12-18T21:31:58.880Z,56.50
2022-12-18T21:34:27.704Z,56.50
2022-12-18T21:36:55.900Z,56.60
2022-12-18T21:39:24.115Z,56.60
2022-12-18T21:42:11.277Z,56.60
2022-12-18T21:44:41.549Z,56.70
2022-12-18T21:47:21.951Z,56.80
2022-12-18T21:50:00.196Z,56.90
2022-12-18T21:52:31.779Z,56.90
2022-12-18T21:55:07.825Z,56.90
2022-12-18T21:57:38.586Z,57.00
2022-12-18T22:00:07.938Z,57.10
2022-12-18T22:02:36.169Z,57.10
2022-12-18T22:05:04.640Z,57.10
2022-12-18T22:07:36.271Z,57.10
2022-12-18T22:10:04.423Z,57.20
2022-12-18T22:12:43.164Z,57.30
2022-12-18T22:15:21.677Z,57.30
2022-12-18T22:17:51.020Z,57.30
2022-12-18T22:20:20.234Z,57.30
2022-12-18T22:22:48.660Z,57.30
2022-12-18T22:25:16.793Z,57.40
2022-12-18T22:28:04.875Z,57.50
2022-12-18T22:30:33.320Z,57.50
2022-12-18T22:33:01.835Z,57.60
2022-12-18T22:35:29.923Z,57.60
2022-12-18T22:37:59.534Z,57.60
2022-12-18T22:40:30.679Z,57.70
2022-12-18T22:43:15.958Z,57.70
2022-12-18T22:45:50.405Z,57.70
2022-12-18T22:48:18.812Z,57.80
2022-12-18T22:50:47.245Z,57.90
2022-12-18T22:53:17.236Z,57.90
2022-12-18T22:55:45.321Z,58.00
2022-12-18T22:58:13.409Z,58.00
2022-12-18T23:00:41.520Z,58.10
2022-12-18T23:03:14.084Z,58.10
2022-12-18T23:05:44.008Z,58.10
2022-12-18T23:08:12.085Z,58.20
2022-12-18T23:10:40.147Z,58.30
2022-12-18T23:13:08.273Z,58.30
2022-12-18T23:15:36.502Z,58.40
2022-12-18T23:18:04.741Z,58.40
2022-12-18T23:20:34.145Z,58.40
2022-12-18T23:23:02.200Z,58.50
2022-12-18T23:25:30.324Z,58.70
2022-12-18T23:27:58.427Z,58.70
2022-12-18T23:30:26.470Z,58.70
2022-12-18T23:32:54.517Z,58.90
2022-12-18T23:35:22.807Z,59.00
2022-12-18T23:37:59.183Z,59.00
2022-12-18T23:40:29.408Z,59.10
2022-12-18T23:42:57.527Z,59.20
2022-12-18T23:45:25.583Z,59.20
2022-12-18T23:47:53.951Z,59.30
2022-12-18T23:50:25.418Z,59.40
2022-12-18T23:53:05.349Z,59.40
2022-12-18T23:55:35.519Z,59.50
2022-12-18T23:58:03.642Z,59.50
